sensor_id;sensor_type;location;lat;lon;timestamp;pressure;altitude;pressure_sealevel;temperature;humidity
16613;BME280;8419;52.358;9.752;2023-03-13T00:02:40;99778.00;;;18.94;39.70
16613;BME280;8419;52.358;9.752;2023-03-13T00:05:25;99792.00;;;19.11;39.43
16613;BME280;8419;52.358;9.752;2023-03-13T00:08:11;99786.00;;;19.09;39.48
16613;BME280;8419;52.358;9.752;2023-03-13T00:10:56;99778.00;;;19.17;39.30
16613;BME280;8419;52.358;9.752;2023-03-13T00:13:42;99773.00;;;19.08;39.46
16613;BME280;8419;52.358;9.752;2023-03-13T00:16:28;99774.00;;;19.18;39.31
16613;BME280;8419;52.358;9.752;2023-03-13T00:19:15;99775.00;;;19.12;39.41
16613;BME280;8419;52.358;9.752;2023-03-13T00:22:00;99766.00;;;19.10;39.42
16613;BME280;8419;52.358;9.752;2023-03-13T00:24:46;99756.00;;;19.07;39.46
16613;BME280;8419;52.358;9.752;2023-03-13T00:27:32;99754.00;;;19.06;39.43
16613;BME280;8419;52.358;9.752;2023-03-13T00:30:18;99750.00;;;19.13;39.32
16613;BME280;8419;52.358;9.752;2023-03-13T00:33:04;99762.00;;;19.04;39.42
16613;BME280;8419;52.358;9.752;2023-03-13T00:35:49;99762.00;;;18.97;39.50
16613;BME280;8419;52.358;9.752;2023-03-13T00:38:35;99756.00;;;19.07;39.35
16613;BME280;8419;52.358;9.752;2023-03-13T00:41:22;99746.00;;;19.11;39.27
16613;BME280;8419;52.358;9.752;2023-03-13T00:44:07;99736.00;;;19.08;39.28
16613;BME280;8419;52.358;9.752;2023-03-13T00:46:53;99730.00;;;19.08;39.27
16613;BME280;8419;52.358;9.752;2023-03-13T00:49:38;99734.00;;;19.16;39.11
16613;BME280;8419;52.358;9.752;2023-03-13T00:52:24;99732.00;;;19.22;39.01
16613;BME280;8419;52.358;9.752;2023-03-13T00:55:12;99732.00;;;19.28;38.86
16613;BME280;8419;52.358;9.752;2023-03-13T00:57:57;99730.00;;;19.30;38.82
16613;BME280;8419;52.358;9.752;2023-03-13T01:00:42;99720.00;;;19.32;38.75
16613;BME280;8419;52.358;9.752;2023-03-13T01:03:28;99716.00;;;19.39;38.60
16613;BME280;8419;52.358;9.752;2023-03-13T01:06:17;99712.00;;;19.37;38.62
16613;BME280;8419;52.358;9.752;2023-03-13T01:09:04;99711.00;;;19.39;38.46
16613;BME280;8419;52.358;9.752;2023-03-13T01:11:50;99703.00;;;19.43;38.37
16613;BME280;8419;52.358;9.752;2023-03-13T01:14:37;99704.00;;;19.38;38.37
16613;BME280;8419;52.358;9.752;2023-03-13T01:17:22;99698.00;;;19.36;38.31
16613;BME280;8419;52.358;9.752;2023-03-13T01:20:10;99691.00;;;19.42;38.13
16613;BME280;8419;52.358;9.752;2023-03-13T01:22:55;99685.00;;;19.42;38.11
16613;BME280;8419;52.358;9.752;2023-03-13T01:25:41;99686.00;;;19.46;37.98
16613;BME280;8419;52.358;9.752;2023-03-13T01:28:27;99679.00;;;19.43;37.97
16613;BME280;8419;52.358;9.752;2023-03-13T01:31:14;99681.00;;;19.39;38.05
16613;BME280;8419;52.358;9.752;2023-03-13T01:34:03;99672.00;;;19.35;38.05
16613;BME280;8419;52.358;9.752;2023-03-13T01:36:49;99680.00;;;19.32;38.15
16613;BME280;8419;52.358;9.752;2023-03-13T01:39:35;99659.00;;;19.29;38.23
16613;BME280;8419;52.358;9.752;2023-03-13T01:42:21;99669.00;;;19.26;38.28
16613;BME280;8419;52.358;9.752;2023-03-13T01:48:34;99662.00;;;19.18;38.46
16613;BME280;8419;52.358;9.752;2023-03-13T01:51:24;99649.00;;;19.07;38.55
16613;BME280;8419;52.358;9.752;2023-03-13T01:54:17;99638.00;;;18.98;38.75
16613;BME280;8419;52.358;9.752;2023-03-13T01:57:08;99632.00;;;18.95;38.84
16613;BME280;8419;52.358;9.752;2023-03-13T01:59:59;99628.00;;;18.94;38.85
16613;BME280;8419;52.358;9.752;2023-03-13T02:02:48;99619.00;;;18.95;38.76
16613;BME280;8419;52.358;9.752;2023-03-13T02:05:35;99611.00;;;18.92;38.78
16613;BME280;8419;52.358;9.752;2023-03-13T02:08:24;99599.00;;;18.98;38.67
16613;BME280;8419;52.358;9.752;2023-03-13T02:11:21;99590.00;;;18.89;38.82
16613;BME280;8419;52.358;9.752;2023-03-13T02:14:10;99580.00;;;18.90;38.84
16613;BME280;8419;52.358;9.752;2023-03-13T02:16:56;99582.00;;;18.86;38.85
16613;BME280;8419;52.358;9.752;2023-03-13T02:19:43;99570.00;;;18.79;39.01
16613;BME280;8419;52.358;9.752;2023-03-13T02:22:34;99568.00;;;18.76;39.11
16613;BME280;8419;52.358;9.752;2023-03-13T02:25:32;99565.00;;;18.69;39.25
16613;BME280;8419;52.358;9.752;2023-03-13T02:28:22;99551.00;;;18.72;39.25
16613;BME280;8419;52.358;9.752;2023-03-13T02:31:10;99541.00;;;18.71;39.27
16613;BME280;8419;52.358;9.752;2023-03-13T02:33:57;99538.00;;;18.74;39.20
16613;BME280;8419;52.358;9.752;2023-03-13T02:36:47;99537.00;;;18.75;39.20
16613;BME280;8419;52.358;9.752;2023-03-13T02:39:33;99523.00;;;18.73;39.24
16613;BME280;8419;52.358;9.752;2023-03-13T02:42:22;99522.00;;;18.66;39.41
16613;BME280;8419;52.358;9.752;2023-03-13T02:45:13;99509.00;;;18.63;39.53
16613;BME280;8419;52.358;9.752;2023-03-13T02:48:00;99511.00;;;18.63;39.57
16613;BME280;8419;52.358;9.752;2023-03-13T02:50:45;99502.00;;;18.73;39.37
16613;BME280;8419;52.358;9.752;2023-03-13T02:53:34;99490.00;;;18.66;39.56
16613;BME280;8419;52.358;9.752;2023-03-13T02:56:25;99490.00;;;18.50;39.90
16613;BME280;8419;52.358;9.752;2023-03-13T02:59:11;99469.00;;;18.53;39.85
16613;BME280;8419;52.358;9.752;2023-03-13T03:01:56;99462.00;;;18.59;39.82
16613;BME280;8419;52.358;9.752;2023-03-13T03:04:42;99462.00;;;18.49;40.00
16613;BME280;8419;52.358;9.752;2023-03-13T03:07:30;99456.00;;;18.55;39.97
16613;BME280;8419;52.358;9.752;2023-03-13T03:10:18;99434.00;;;18.59;39.86
16613;BME280;8419;52.358;9.752;2023-03-13T03:13:03;99422.00;;;18.64;39.82
16613;BME280;8419;52.358;9.752;2023-03-13T03:15:49;99417.00;;;18.66;39.80
16613;BME280;8419;52.358;9.752;2023-03-13T03:18:35;99409.00;;;18.67;39.83
16613;BME280;8419;52.358;9.752;2023-03-13T03:21:20;99400.00;;;18.65;39.83
16613;BME280;8419;52.358;9.752;2023-03-13T03:24:08;99396.00;;;18.67;39.81
16613;BME280;8419;52.358;9.752;2023-03-13T03:26:53;99385.00;;;18.64;39.87
16613;BME280;8419;52.358;9.752;2023-03-13T03:29:38;99384.00;;;18.67;39.82
16613;BME280;8419;52.358;9.752;2023-03-13T03:32:24;99378.00;;;18.63;39.94
16613;BME280;8419;52.358;9.752;2023-03-13T03:35:09;99368.00;;;18.50;40.20
16613;BME280;8419;52.358;9.752;2023-03-13T03:37:55;99365.00;;;18.47;40.30
16613;BME280;8419;52.358;9.752;2023-03-13T03:40:40;99353.00;;;18.49;40.29
16613;BME280;8419;52.358;9.752;2023-03-13T03:43:26;99343.00;;;18.64;40.08
16613;BME280;8419;52.358;9.752;2023-03-13T03:46:11;99341.00;;;18.53;40.26
16613;BME280;8419;52.358;9.752;2023-03-13T03:48:57;99324.00;;;18.48;40.39
16613;BME280;8419;52.358;9.752;2023-03-13T03:51:43;99312.00;;;18.47;40.47
16613;BME280;8419;52.358;9.752;2023-03-13T03:54:29;99311.00;;;18.44;40.56
16613;BME280;8419;52.358;9.752;2023-03-13T03:57:14;99312.00;;;18.52;40.40
16613;BME280;8419;52.358;9.752;2023-03-13T04:00:00;99307.00;;;18.49;40.45
16613;BME280;8419;52.358;9.752;2023-03-13T04:02:46;99309.00;;;18.49;40.53
16613;BME280;8419;52.358;9.752;2023-03-13T04:05:31;99299.00;;;18.47;40.55
16613;BME280;8419;52.358;9.752;2023-03-13T04:08:17;99295.00;;;18.47;40.60
16613;BME280;8419;52.358;9.752;2023-03-13T04:11:03;99290.00;;;18.50;40.57
16613;BME280;8419;52.358;9.752;2023-03-13T04:13:48;99291.00;;;18.52;40.59
16613;BME280;8419;52.358;9.752;2023-03-13T04:16:34;99290.00;;;18.50;40.61
16613;BME280;8419;52.358;9.752;2023-03-13T04:19:20;99303.00;;;18.51;40.63
16613;BME280;8419;52.358;9.752;2023-03-13T04:22:05;99295.00;;;18.48;40.71
16613;BME280;8419;52.358;9.752;2023-03-13T04:24:51;99283.00;;;18.49;40.73
16613;BME280;8419;52.358;9.752;2023-03-13T04:27:37;99267.00;;;18.49;40.76
16613;BME280;8419;52.358;9.752;2023-03-13T04:30:22;99262.00;;;18.51;40.77
16613;BME280;8419;52.358;9.752;2023-03-13T04:33:08;99255.00;;;18.48;40.85
16613;BME280;8419;52.358;9.752;2023-03-13T04:35:54;99252.00;;;18.47;40.87
16613;BME280;8419;52.358;9.752;2023-03-13T04:38:39;99246.00;;;18.46;40.89
16613;BME280;8419;52.358;9.752;2023-03-13T04:41:24;99249.00;;;18.53;40.85
16613;BME280;8419;52.358;9.752;2023-03-13T04:44:10;99244.00;;;18.43;41.06
16613;BME280;8419;52.358;9.752;2023-03-13T04:46:56;99234.00;;;18.44;41.11
16613;BME280;8419;52.358;9.752;2023-03-13T04:49:41;99220.00;;;18.38;41.22
16613;BME280;8419;52.358;9.752;2023-03-13T04:52:27;99211.00;;;18.39;41.24
16613;BME280;8419;52.358;9.752;2023-03-13T04:55:15;99200.00;;;18.39;41.35
16613;BME280;8419;52.358;9.752;2023-03-13T04:58:00;99193.00;;;18.42;41.40
16613;BME280;8419;52.358;9.752;2023-03-13T05:00:46;99181.00;;;18.41;41.49
16613;BME280;8419;52.358;9.752;2023-03-13T05:03:34;99187.00;;;18.44;41.48
16613;BME280;8419;52.358;9.752;2023-03-13T05:06:19;99179.00;;;18.46;41.50
16613;BME280;8419;52.358;9.752;2023-03-13T05:09:04;99161.00;;;18.47;41.58
16613;BME280;8419;52.358;9.752;2023-03-13T05:11:50;99166.00;;;18.49;41.68
16613;BME280;8419;52.358;9.752;2023-03-13T05:14:35;99167.00;;;18.48;41.85
16613;BME280;8419;52.358;9.752;2023-03-13T05:17:20;99174.00;;;18.49;41.98
16613;BME280;8419;52.358;9.752;2023-03-13T05:20:08;99157.00;;;18.47;42.04
16613;BME280;8419;52.358;9.752;2023-03-13T05:22:56;99166.00;;;18.48;42.11
16613;BME280;8419;52.358;9.752;2023-03-13T05:25:41;99165.00;;;18.46;42.22
16613;BME280;8419;52.358;9.752;2023-03-13T05:28:27;99159.00;;;18.41;42.47
16613;BME280;8419;52.358;9.752;2023-03-13T05:31:12;99148.00;;;18.45;42.40
16613;BME280;8419;52.358;9.752;2023-03-13T05:33:58;99161.00;;;18.51;42.38
16613;BME280;8419;52.358;9.752;2023-03-13T05:36:43;99153.00;;;18.56;42.39
16613;BME280;8419;52.358;9.752;2023-03-13T05:39:28;99135.00;;;18.62;42.40
16613;BME280;8419;52.358;9.752;2023-03-13T05:42:14;99138.00;;;18.62;42.50
16613;BME280;8419;52.358;9.752;2023-03-13T05:44:59;99135.00;;;18.63;42.51
16613;BME280;8419;52.358;9.752;2023-03-13T05:47:45;99120.00;;;18.65;42.49
16613;BME280;8419;52.358;9.752;2023-03-13T05:50:33;99124.00;;;18.68;42.57
16613;BME280;8419;52.358;9.752;2023-03-13T05:53:19;99123.00;;;18.70;42.63
16613;BME280;8419;52.358;9.752;2023-03-13T05:56:06;99117.00;;;18.70;42.73
16613;BME280;8419;52.358;9.752;2023-03-13T05:58:54;99121.00;;;18.59;43.04
16613;BME280;8419;52.358;9.752;2023-03-13T06:01:39;99111.00;;;18.56;43.26
16613;BME280;8419;52.358;9.752;2023-03-13T06:04:25;99113.00;;;18.58;43.35
16613;BME280;8419;52.358;9.752;2023-03-13T06:07:11;99095.00;;;18.70;43.21
16613;BME280;8419;52.358;9.752;2023-03-13T06:09:58;99108.00;;;18.73;43.37
16613;BME280;8419;52.358;9.752;2023-03-13T06:12:44;99104.00;;;18.78;43.39
16613;BME280;8419;52.358;9.752;2023-03-13T06:15:36;99101.00;;;18.81;43.47
16613;BME280;8419;52.358;9.752;2023-03-13T06:18:21;99091.00;;;18.83;43.53
16613;BME280;8419;52.358;9.752;2023-03-13T06:21:10;99104.00;;;18.91;43.51
16613;BME280;8419;52.358;9.752;2023-03-13T06:23:55;99100.00;;;18.95;43.48
16613;BME280;8419;52.358;9.752;2023-03-13T06:26:41;99101.00;;;19.03;43.49
16613;BME280;8419;52.358;9.752;2023-03-13T06:29:27;99089.00;;;19.02;43.61
16613;BME280;8419;52.358;9.752;2023-03-13T06:32:12;99094.00;;;19.08;43.53
16613;BME280;8419;52.358;9.752;2023-03-13T06:34:58;99089.00;;;19.10;43.62
16613;BME280;8419;52.358;9.752;2023-03-13T06:37:43;99082.00;;;19.14;43.67
16613;BME280;8419;52.358;9.752;2023-03-13T06:40:29;99087.00;;;19.25;43.60
16613;BME280;8419;52.358;9.752;2023-03-13T06:43:14;99087.00;;;19.23;43.72
16613;BME280;8419;52.358;9.752;2023-03-13T06:46:04;99081.00;;;19.24;43.81
16613;BME280;8419;52.358;9.752;2023-03-13T06:48:49;99078.00;;;19.27;43.92
16613;BME280;8419;52.358;9.752;2023-03-13T06:51:35;99076.00;;;19.31;43.95
16613;BME280;8419;52.358;9.752;2023-03-13T06:54:20;99068.00;;;19.47;43.65
16613;BME280;8419;52.358;9.752;2023-03-13T06:57:06;99071.00;;;19.52;43.60
16613;BME280;8419;52.358;9.752;2023-03-13T06:59:51;99067.00;;;19.55;43.59
16613;BME280;8419;52.358;9.752;2023-03-13T07:02:37;99066.00;;;19.56;43.63
16613;BME280;8419;52.358;9.752;2023-03-13T07:05:22;99063.00;;;19.54;43.64
16613;BME280;8419;52.358;9.752;2023-03-13T07:08:08;99064.00;;;19.53;43.77
16613;BME280;8419;52.358;9.752;2023-03-13T07:10:57;99059.00;;;19.42;44.09
16613;BME280;8419;52.358;9.752;2023-03-13T07:13:43;99061.00;;;19.46;44.06
16613;BME280;8419;52.358;9.752;2023-03-13T07:16:29;99063.00;;;19.48;44.10
16613;BME280;8419;52.358;9.752;2023-03-13T07:19:15;99067.00;;;19.53;44.13
16613;BME280;8419;52.358;9.752;2023-03-13T07:22:00;99050.00;;;19.61;44.12
16613;BME280;8419;52.358;9.752;2023-03-13T07:24:46;99061.00;;;19.69;44.08
16613;BME280;8419;52.358;9.752;2023-03-13T07:27:31;99056.00;;;19.77;44.01
16613;BME280;8419;52.358;9.752;2023-03-13T07:30:18;99057.00;;;19.85;43.91
16613;BME280;8419;52.358;9.752;2023-03-13T07:33:03;99074.00;;;19.90;43.93
16613;BME280;8419;52.358;9.752;2023-03-13T07:35:51;99049.00;;;20.01;43.79
16613;BME280;8419;52.358;9.752;2023-03-13T07:38:36;99058.00;;;20.00;43.88
16613;BME280;8419;52.358;9.752;2023-03-13T07:41:22;99065.00;;;20.01;43.89
16613;BME280;8419;52.358;9.752;2023-03-13T07:44:08;99059.00;;;19.94;44.11
16613;BME280;8419;52.358;9.752;2023-03-13T07:46:54;99067.00;;;19.99;44.09
16613;BME280;8419;52.358;9.752;2023-03-13T07:49:39;99065.00;;;19.93;44.26
16613;BME280;8419;52.358;9.752;2023-03-13T07:52:29;99067.00;;;19.99;44.22
16613;BME280;8419;52.358;9.752;2023-03-13T07:55:17;99084.00;;;20.15;43.98
16613;BME280;8419;52.358;9.752;2023-03-13T07:58:02;99071.00;;;20.17;44.01
16613;BME280;8419;52.358;9.752;2023-03-13T08:00:48;99081.00;;;20.27;43.93
16613;BME280;8419;52.358;9.752;2023-03-13T08:03:33;99088.00;;;20.31;43.97
16613;BME280;8419;52.358;9.752;2023-03-13T08:06:21;99089.00;;;20.35;44.00
16613;BME280;8419;52.358;9.752;2023-03-13T08:09:07;99090.00;;;20.38;44.03
16613;BME280;8419;52.358;9.752;2023-03-13T08:11:53;99076.00;;;20.43;44.05
16613;BME280;8419;52.358;9.752;2023-03-13T08:14:39;99082.00;;;20.47;44.10
16613;BME280;8419;52.358;9.752;2023-03-13T08:17:25;99088.00;;;20.50;44.13
16613;BME280;8419;52.358;9.752;2023-03-13T08:20:13;99089.00;;;20.54;44.09
16613;BME280;8419;52.358;9.752;2023-03-13T08:22:59;99086.00;;;20.61;44.12
16613;BME280;8419;52.358;9.752;2023-03-13T08:25:45;99080.00;;;20.65;44.07
16613;BME280;8419;52.358;9.752;2023-03-13T08:28:33;99091.00;;;20.69;44.05
16613;BME280;8419;52.358;9.752;2023-03-13T08:31:21;99067.00;;;20.77;44.06
16613;BME280;8419;52.358;9.752;2023-03-13T08:34:06;99071.00;;;20.84;44.05
16613;BME280;8419;52.358;9.752;2023-03-13T08:36:52;99061.00;;;20.97;43.92
16613;BME280;8419;52.358;9.752;2023-03-13T08:39:39;99048.00;;;21.03;43.88
16613;BME280;8419;52.358;9.752;2023-03-13T08:42:25;99051.00;;;21.13;43.88
16613;BME280;8419;52.358;9.752;2023-03-13T08:45:10;99058.00;;;21.18;43.89
16613;BME280;8419;52.358;9.752;2023-03-13T08:47:56;99055.00;;;21.32;43.81
16613;BME280;8419;52.358;9.752;2023-03-13T08:50:41;99051.00;;;21.49;43.65
16613;BME280;8419;52.358;9.752;2023-03-13T08:53:27;99046.00;;;21.65;43.53
16613;BME280;8419;52.358;9.752;2023-03-13T08:56:14;99036.00;;;21.75;43.38
16613;BME280;8419;52.358;9.752;2023-03-13T08:59:03;99049.00;;;21.90;43.21
16613;BME280;8419;52.358;9.752;2023-03-13T09:01:52;99042.00;;;21.95;43.12
16613;BME280;8419;52.358;9.752;2023-03-13T09:04:37;99050.00;;;22.04;43.03
16613;BME280;8419;52.358;9.752;2023-03-13T09:07:23;99040.00;;;22.14;42.78
16613;BME280;8419;52.358;9.752;2023-03-13T09:10:10;99046.00;;;22.19;42.76
16613;BME280;8419;52.358;9.752;2023-03-13T09:12:56;99039.00;;;22.36;42.40
16613;BME280;8419;52.358;9.752;2023-03-13T09:15:41;99026.00;;;22.43;42.24
16613;BME280;8419;52.358;9.752;2023-03-13T09:18:27;99022.00;;;22.52;42.11
16613;BME280;8419;52.358;9.752;2023-03-13T09:21:15;99015.00;;;22.66;41.82
16613;BME280;8419;52.358;9.752;2023-03-13T09:24:02;99024.00;;;22.66;41.87
16613;BME280;8419;52.358;9.752;2023-03-13T09:26:47;99006.00;;;22.65;41.77
16613;BME280;8419;52.358;9.752;2023-03-13T09:29:32;98989.00;;;22.73;41.55
16613;BME280;8419;52.358;9.752;2023-03-13T09:32:22;99007.00;;;22.82;41.38
16613;BME280;8419;52.358;9.752;2023-03-13T09:35:10;99000.00;;;22.91;41.25
16613;BME280;8419;52.358;9.752;2023-03-13T09:37:56;99016.00;;;23.00;41.07
16613;BME280;8419;52.358;9.752;2023-03-13T09:40:44;99005.00;;;23.01;40.92
16613;BME280;8419;52.358;9.752;2023-03-13T09:43:38;99007.00;;;23.10;40.80
16613;BME280;8419;52.358;9.752;2023-03-13T09:46:30;99016.00;;;23.29;40.49
16613;BME280;8419;52.358;9.752;2023-03-13T09:49:28;98995.00;;;23.41;40.23
16613;BME280;8419;52.358;9.752;2023-03-13T09:52:17;99004.00;;;23.53;40.09
16613;BME280;8419;52.358;9.752;2023-03-13T09:55:09;98997.00;;;23.52;39.98
16613;BME280;8419;52.358;9.752;2023-03-13T09:58:01;98988.00;;;23.61;39.87
16613;BME280;8419;52.358;9.752;2023-03-13T10:00:51;98990.00;;;23.74;39.66
16613;BME280;8419;52.358;9.752;2023-03-13T10:03:41;98992.00;;;23.78;39.53
16613;BME280;8419;52.358;9.752;2023-03-13T10:06:32;98994.00;;;23.83;39.35
16613;BME280;8419;52.358;9.752;2023-03-13T10:09:21;98994.00;;;23.83;39.30
16613;BME280;8419;52.358;9.752;2023-03-13T10:12:14;98996.00;;;23.81;39.14
16613;BME280;8419;52.358;9.752;2023-03-13T10:15:16;98986.00;;;23.85;39.17
16613;BME280;8419;52.358;9.752;2023-03-13T10:18:16;99000.00;;;23.82;39.09
16613;BME280;8419;52.358;9.752;2023-03-13T10:21:13;98999.00;;;23.89;38.92
16613;BME280;8419;52.358;9.752;2023-03-13T10:24:09;99005.00;;;23.89;38.87
16613;BME280;8419;52.358;9.752;2023-03-13T10:26:57;98995.00;;;23.80;38.86
16613;BME280;8419;52.358;9.752;2023-03-13T10:29:43;99000.00;;;23.80;38.89
16613;BME280;8419;52.358;9.752;2023-03-13T10:32:29;99003.00;;;23.82;38.87
16613;BME280;8419;52.358;9.752;2023-03-13T10:35:22;98989.00;;;23.90;38.85
16613;BME280;8419;52.358;9.752;2023-03-13T10:38:12;99014.00;;;24.08;38.62
16613;BME280;8419;52.358;9.752;2023-03-13T10:40:59;98989.00;;;24.06;38.68
16613;BME280;8419;52.358;9.752;2023-03-13T10:43:52;98984.00;;;24.28;38.45
16613;BME280;8419;52.358;9.752;2023-03-13T10:46:41;98987.00;;;24.44;38.36
16613;BME280;8419;52.358;9.752;2023-03-13T10:49:27;98979.00;;;24.62;38.16
16613;BME280;8419;52.358;9.752;2023-03-13T10:52:29;98979.00;;;24.81;38.04
16613;BME280;8419;52.358;9.752;2023-03-13T10:55:18;98961.00;;;25.01;37.79
16613;BME280;8419;52.358;9.752;2023-03-13T10:58:12;98963.00;;;25.04;37.70
16613;BME280;8419;52.358;9.752;2023-03-13T11:01:14;98951.00;;;24.91;37.84
16613;BME280;8419;52.358;9.752;2023-03-13T11:04:18;98980.00;;;25.04;37.81
16613;BME280;8419;52.358;9.752;2023-03-13T11:07:09;98964.00;;;25.29;37.40
16613;BME280;8419;52.358;9.752;2023-03-13T11:10:00;98930.00;;;25.45;36.90
16613;BME280;8419;52.358;9.752;2023-03-13T11:12:49;98955.00;;;25.47;36.90
16613;BME280;8419;52.358;9.752;2023-03-13T11:15:41;98955.00;;;25.45;36.89
16613;BME280;8419;52.358;9.752;2023-03-13T11:18:35;98947.00;;;25.50;36.83
16613;BME280;8419;52.358;9.752;2023-03-13T11:21:32;98948.00;;;25.51;36.70
16613;BME280;8419;52.358;9.752;2023-03-13T11:24:25;98971.00;;;25.66;36.50
16613;BME280;8419;52.358;9.752;2023-03-13T11:27:22;98945.00;;;25.84;36.01
16613;BME280;8419;52.358;9.752;2023-03-13T11:30:19;98929.00;;;25.96;35.90
16613;BME280;8419;52.358;9.752;2023-03-13T11:33:21;98923.00;;;26.11;35.67
16613;BME280;8419;52.358;9.752;2023-03-13T11:36:15;98913.00;;;26.10;35.32
16613;BME280;8419;52.358;9.752;2023-03-13T11:39:14;98915.00;;;26.15;35.19
16613;BME280;8419;52.358;9.752;2023-03-13T11:42:17;98908.00;;;26.50;34.88
16613;BME280;8419;52.358;9.752;2023-03-13T11:45:26;98910.00;;;26.58;34.17
16613;BME280;8419;52.358;9.752;2023-03-13T11:48:25;98890.00;;;26.44;34.19
16613;BME280;8419;52.358;9.752;2023-03-13T11:51:20;98902.00;;;26.27;34.27
16613;BME280;8419;52.358;9.752;2023-03-13T11:54:40;98897.00;;;26.33;34.16
16613;BME280;8419;52.358;9.752;2023-03-13T11:57:33;98901.00;;;26.31;33.73
16613;BME280;8419;52.358;9.752;2023-03-13T12:00:30;98877.00;;;26.38;33.54
16613;BME280;8419;52.358;9.752;2023-03-13T12:03:21;98895.00;;;26.59;33.11
16613;BME280;8419;52.358;9.752;2023-03-13T12:06:19;98901.00;;;26.66;32.74
16613;BME280;8419;52.358;9.752;2023-03-13T12:09:13;98877.00;;;26.88;32.61
16613;BME280;8419;52.358;9.752;2023-03-13T12:12:08;98871.00;;;26.99;32.34
16613;BME280;8419;52.358;9.752;2023-03-13T12:15:13;98890.00;;;27.14;32.13
16613;BME280;8419;52.358;9.752;2023-03-13T12:18:08;98870.00;;;27.08;31.72
16613;BME280;8419;52.358;9.752;2023-03-13T12:21:01;98901.00;;;27.36;30.80
16613;BME280;8419;52.358;9.752;2023-03-13T12:23:56;98867.00;;;27.40;30.88
16613;BME280;8419;52.358;9.752;2023-03-13T12:26:48;98874.00;;;27.30;30.79
16613;BME280;8419;52.358;9.752;2023-03-13T12:29:44;98862.00;;;27.45;30.91
16613;BME280;8419;52.358;9.752;2023-03-13T12:32:36;98858.00;;;27.82;30.16
16613;BME280;8419;52.358;9.752;2023-03-13T12:35:27;98830.00;;;27.98;29.87
16613;BME280;8419;52.358;9.752;2023-03-13T12:38:16;98812.00;;;28.24;29.20
16613;BME280;8419;52.358;9.752;2023-03-13T12:41:17;98815.00;;;28.12;29.28
16613;BME280;8419;52.358;9.752;2023-03-13T12:44:08;98816.00;;;28.45;29.02
16613;BME280;8419;52.358;9.752;2023-03-13T12:47:06;98826.00;;;28.56;28.84
16613;BME280;8419;52.358;9.752;2023-03-13T12:50:26;98823.00;;;29.14;28.31
16613;BME280;8419;52.358;9.752;2023-03-13T12:53:29;98819.00;;;29.28;28.05
16613;BME280;8419;52.358;9.752;2023-03-13T13:00:17;98813.00;;;28.24;28.58
16613;BME280;8419;52.358;9.752;2023-03-13T13:03:13;98842.00;;;27.96;28.98
16613;BME280;8419;52.358;9.752;2023-03-13T13:06:10;98811.00;;;28.27;28.78
16613;BME280;8419;52.358;9.752;2023-03-13T13:09:07;98792.00;;;28.88;28.17
16613;BME280;8419;52.358;9.752;2023-03-13T13:11:56;98779.00;;;28.77;28.23
16613;BME280;8419;52.358;9.752;2023-03-13T13:15:09;98788.00;;;29.22;27.86
16613;BME280;8419;52.358;9.752;2023-03-13T13:18:14;98788.00;;;29.52;27.55
16613;BME280;8419;52.358;9.752;2023-03-13T13:21:22;98771.00;;;29.21;27.79
16613;BME280;8419;52.358;9.752;2023-03-13T13:27:48;98782.00;;;28.61;28.09
16613;BME280;8419;52.358;9.752;2023-03-13T13:30:34;98761.00;;;28.32;28.17
16613;BME280;8419;52.358;9.752;2023-03-13T13:36:41;98748.00;;;28.71;27.56
16613;BME280;8419;52.358;9.752;2023-03-13T13:39:36;98754.00;;;28.98;26.92
16613;BME280;8419;52.358;9.752;2023-03-13T13:42:47;98737.00;;;29.63;26.04
16613;BME280;8419;52.358;9.752;2023-03-13T13:45:35;98734.00;;;29.86;25.64
16613;BME280;8419;52.358;9.752;2023-03-13T13:48:27;98734.00;;;29.95;25.51
16613;BME280;8419;52.358;9.752;2023-03-13T13:51:25;98734.00;;;29.93;25.08
16613;BME280;8419;52.358;9.752;2023-03-13T13:54:31;98743.00;;;30.22;24.71
16613;BME280;8419;52.358;9.752;2023-03-13T13:57:20;98719.00;;;30.57;24.09
16613;BME280;8419;52.358;9.752;2023-03-13T14:00:18;98724.00;;;30.85;23.30
16613;BME280;8419;52.358;9.752;2023-03-13T14:03:17;98712.00;;;30.82;23.31
16613;BME280;8419;52.358;9.752;2023-03-13T14:06:16;98714.00;;;30.47;23.46
16613;BME280;8419;52.358;9.752;2023-03-13T14:09:14;98725.00;;;30.44;23.42
16613;BME280;8419;52.358;9.752;2023-03-13T14:12:24;98703.00;;;30.18;23.74
16613;BME280;8419;52.358;9.752;2023-03-13T14:15:15;98712.00;;;30.41;23.86
16613;BME280;8419;52.358;9.752;2023-03-13T14:18:10;98739.00;;;30.58;23.61
16613;BME280;8419;52.358;9.752;2023-03-13T14:20:59;98702.00;;;30.30;23.89
16613;BME280;8419;52.358;9.752;2023-03-13T14:23:46;98726.00;;;30.92;23.54
16613;BME280;8419;52.358;9.752;2023-03-13T14:26:41;98706.00;;;31.30;23.13
16613;BME280;8419;52.358;9.752;2023-03-13T14:29:27;98708.00;;;31.21;23.23
16613;BME280;8419;52.358;9.752;2023-03-13T14:32:16;98719.00;;;30.34;24.11
16613;BME280;8419;52.358;9.752;2023-03-13T14:35:03;98712.00;;;29.68;24.80
16613;BME280;8419;52.358;9.752;2023-03-13T14:37:51;98696.00;;;29.26;25.45
16613;BME280;8419;52.358;9.752;2023-03-13T14:40:38;98725.00;;;29.24;25.69
16613;BME280;8419;52.358;9.752;2023-03-13T14:43:29;98691.00;;;30.54;24.33
16613;BME280;8419;52.358;9.752;2023-03-13T14:46:28;98676.00;;;31.22;23.36
16613;BME280;8419;52.358;9.752;2023-03-13T14:49:17;98689.00;;;31.80;22.71
16613;BME280;8419;52.358;9.752;2023-03-13T14:52:06;98692.00;;;31.55;22.38
16613;BME280;8419;52.358;9.752;2023-03-13T14:54:59;98683.00;;;31.33;22.82
16613;BME280;8419;52.358;9.752;2023-03-13T14:57:55;98670.00;;;31.35;22.91
16613;BME280;8419;52.358;9.752;2023-03-13T15:00:43;98654.00;;;31.01;23.05
16613;BME280;8419;52.358;9.752;2023-03-13T15:03:32;98688.00;;;29.91;24.09
16613;BME280;8419;52.358;9.752;2023-03-13T15:06:22;98677.00;;;29.26;24.86
16613;BME280;8419;52.358;9.752;2023-03-13T15:09:18;98645.00;;;28.81;25.35
16613;BME280;8419;52.358;9.752;2023-03-13T15:12:12;98650.00;;;28.64;25.71
16613;BME280;8419;52.358;9.752;2023-03-13T15:14:58;98646.00;;;28.55;25.89
16613;BME280;8419;52.358;9.752;2023-03-13T15:17:44;98631.00;;;28.40;26.07
16613;BME280;8419;52.358;9.752;2023-03-13T15:20:30;98634.00;;;28.28;26.35
16613;BME280;8419;52.358;9.752;2023-03-13T15:23:16;98631.00;;;28.12;26.60